createdAt,value
2017-06-27T00:00:34.553Z,100671.17
2017-06-27T00:03:02.067Z,100664.02
2017-06-27T00:05:29.673Z,100659.94
2017-06-27T00:07:57.188Z,100651.59
2017-06-27T00:10:24.861Z,100659.21
2017-06-27T00:12:52.369Z,100657.87
2017-06-27T00:15:19.905Z,100670.65
2017-06-27T00:17:47.443Z,100672.31
2017-06-27T00:20:14.960Z,100665.79
2017-06-27T00:22:42.511Z,100664.02
2017-06-27T00:25:10.044Z,100658.11
2017-06-27T00:27:37.645Z,100653.16
2017-06-27T00:30:05.167Z,100661.30
2017-06-27T00:32:32.887Z,100662.20
2017-06-27T00:35:00.404Z,100658.85
2017-06-27T00:37:27.907Z,100660.27
2017-06-27T00:39:55.467Z,100659.70
2017-06-27T00:42:22.987Z,100658.38
2017-06-27T00:44:50.538Z,100663.48
2017-06-27T00:47:18.047Z,100664.19
2017-06-27T00:49:45.710Z,100661.17
2017-06-27T00:52:13.218Z,100663.80
2017-06-27T00:54:40.722Z,100654.34
2017-06-27T00:57:08.272Z,100657.02
2017-06-27T00:59:35.808Z,100656.53
2017-06-27T01:02:03.370Z,100662.36
2017-06-27T01:04:30.883Z,100657.36
2017-06-27T01:06:58.644Z,100655.86
2017-06-27T01:09:26.150Z,100656.85
2017-06-27T01:11:53.659Z,100659.14
2017-06-27T01:14:21.210Z,100648.97
2017-06-27T01:16:48.737Z,100654.61
2017-06-27T01:19:16.419Z,100652.11
2017-06-27T01:21:44.007Z,100656.58
2017-06-27T01:24:11.567Z,100660.59
2017-06-27T01:26:39.196Z,100657.80
2017-06-27T01:29:06.754Z,100656.97
2017-06-27T01:31:34.287Z,100659.45
2017-06-27T01:34:01.988Z,100666.81
2017-06-27T01:36:29.504Z,100669.09
2017-06-27T01:38:57.210Z,100668.47
2017-06-27T01:41:24.720Z,100668.45
2017-06-27T01:43:52.254Z,100669.58
2017-06-27T01:46:19.794Z,100671.20
2017-06-27T01:48:47.410Z,100664.56
2017-06-27T01:51:15.010Z,100668.89
2017-06-27T01:53:42.518Z,100670.38
2017-06-27T01:56:10.065Z,100669.04
2017-06-27T01:58:37.874Z,100663.14
2017-06-27T02:01:05.378Z,100661.68
2017-06-27T02:03:32.927Z,100661.84
2017-06-27T02:06:00.440Z,100658.04
2017-06-27T02:08:27.991Z,100657.25
2017-06-27T02:10:55.535Z,100648.81
2017-06-27T02:13:23.319Z,100641.70
2017-06-27T02:15:50.860Z,100648.02
2017-06-27T02:18:18.366Z,100634.82
2017-06-27T02:20:45.938Z,100635.70
2017-06-27T02:23:13.447Z,100637.39
2017-06-27T02:25:40.983Z,100640.58
2017-06-27T02:28:08.491Z,100638.83
2017-06-27T02:30:36.063Z,100633.23
2017-06-27T02:33:03.571Z,100636.18
2017-06-27T02:35:31.358Z,100631.73
2017-06-27T02:37:58.855Z,100629.28
2017-06-27T02:40:26.359Z,100620.63
2017-06-27T02:42:53.998Z,100619.78
2017-06-27T02:45:21.506Z,100611.92
2017-06-27T02:47:49.053Z,100617.75
2017-06-27T02:50:16.572Z,100612.07
2017-06-27T02:52:44.125Z,100606.55
2017-06-27T02:55:11.634Z,100612.88
2017-06-27T02:57:39.509Z,100608.38
2017-06-27T03:00:07.023Z,100610.45
2017-06-27T03:02:34.540Z,100602.41
2017-06-27T03:05:02.087Z,100601.38
2017-06-27T03:07:29.594Z,100601.91
2017-06-27T03:09:57.151Z,100603.09
2017-06-27T03:12:24.670Z,100606.97
2017-06-27T03:14:52.670Z,100602.58
2017-06-27T03:17:20.192Z,100591.66
2017-06-27T03:19:47.695Z,100593.68
2017-06-27T03:22:15.255Z,100597.38
2017-06-27T03:24:42.770Z,100600.55
2017-06-27T03:27:10.330Z,100606.41
2017-06-27T03:29:37.848Z,100597.69
2017-06-27T03:32:05.675Z,100593.63
2017-06-27T03:34:33.186Z,100593.59
2017-06-27T03:37:00.719Z,100584.88
2017-06-27T03:39:28.258Z,100589.92
2017-06-27T03:41:55.770Z,100585.30
2017-06-27T03:44:23.319Z,100585.08
2017-06-27T03:46:50.833Z,100581.41
2017-06-27T03:49:18.641Z,100581.73
2017-06-27T03:51:46.138Z,100585.30
2017-06-27T03:54:13.658Z,100589.53
2017-06-27T03:56:41.211Z,100592.02
2017-06-27T03:59:08.720Z,100589.68
2017-06-27T04:01:36.399Z,100590.00
2017-06-27T04:04:03.902Z,100588.12
2017-06-27T04:06:31.815Z,100591.59
2017-06-27T04:08:59.322Z,100586.89
2017-06-27T04:11:26.844Z,100583.78
2017-06-27T04:13:54.888Z,100583.38
2017-06-27T04:16:22.404Z,100579.80
2017-06-27T04:18:50.091Z,100580.28
2017-06-27T04:21:17.615Z,100574.34
2017-06-27T04:23:45.176Z,100577.62
2017-06-27T04:26:12.684Z,100568.59
2017-06-27T04:28:40.587Z,100560.94
2017-06-27T04:31:08.176Z,100564.83
2017-06-27T04:33:35.692Z,100563.47
2017-06-27T04:36:03.255Z,100554.61
2017-06-27T04:38:30.768Z,100562.37
2017-06-27T04:40:58.308Z,100558.54
2017-06-27T04:43:25.847Z,100560.07
2017-06-27T04:45:53.369Z,100558.79
2017-06-27T04:48:20.942Z,100555.59
2017-06-27T04:50:48.448Z,100552.73
2017-06-27T04:53:15.995Z,100553.99
2017-06-27T04:55:43.534Z,100551.43
2017-06-27T04:58:11.061Z,100546.89
2017-06-27T05:00:38.574Z,100545.75
2017-06-27T05:03:06.168Z,100541.93
2017-06-27T05:05:33.686Z,100541.84
2017-06-27T05:08:01.202Z,100536.75
2017-06-27T05:10:28.771Z,100538.80
2017-06-27T05:12:56.343Z,100536.73
2017-06-27T05:15:23.907Z,100540.29
2017-06-27T05:17:51.428Z,100529.95
2017-06-27T05:20:18.959Z,100535.18
2017-06-27T05:22:46.455Z,100534.15
2017-06-27T05:25:14.006Z,100538.34
2017-06-27T05:27:41.651Z,100533.06
2017-06-27T05:30:09.215Z,100531.98
2017-06-27T05:32:36.736Z,100532.89
2017-06-27T05:35:04.296Z,100519.32
2017-06-27T05:37:31.857Z,100514.96
2017-06-27T05:39:59.371Z,100513.61
2017-06-27T05:42:26.931Z,100517.69
2017-06-27T05:44:54.431Z,100513.69
2017-06-27T05:47:21.987Z,100513.77
2017-06-27T05:49:49.511Z,100510.95
2017-06-27T05:52:17.204Z,100517.89
2017-06-27T05:54:44.700Z,100514.48
2017-06-27T05:57:12.215Z,100518.32
2017-06-27T05:59:39.772Z,100517.20
2017-06-27T06:02:07.359Z,100513.71
2017-06-27T06:04:34.994Z,100516.36
2017-06-27T06:07:02.521Z,100509.53
2017-06-27T06:09:30.110Z,100510.38
2017-06-27T06:11:57.626Z,100513.54
2017-06-27T06:14:25.185Z,100514.05
2017-06-27T06:16:52.727Z,100517.16
2017-06-27T06:19:20.438Z,100520.30
2017-06-27T06:21:47.935Z,100523.78
2017-06-27T06:24:15.456Z,100520.84
2017-06-27T06:26:43.042Z,100515.70
2017-06-27T06:29:10.583Z,100511.84
2017-06-27T06:31:38.215Z,100515.77
2017-06-27T06:34:05.816Z,100508.45
2017-06-27T06:36:33.467Z,100503.31
2017-06-27T06:39:01.079Z,100494.59
2017-06-27T06:41:28.651Z,100497.23
2017-06-27T06:43:56.152Z,100497.26
2017-06-27T06:46:24.054Z,100498.11
2017-06-27T06:48:51.554Z,100497.46
2017-06-27T06:51:19.080Z,100495.64
2017-06-27T06:53:46.619Z,100499.80
2017-06-27T06:56:14.139Z,100492.22
2017-06-27T06:58:41.698Z,100490.31
2017-06-27T07:01:09.203Z,100490.58
2017-06-27T07:03:36.875Z,100491.33
2017-06-27T07:06:04.408Z,100490.31
2017-06-27T07:08:32.190Z,100506.45
2017-06-27T07:10:59.718Z,100502.84
2017-06-27T07:13:27.448Z,100502.56
2017-06-27T07:15:54.987Z,100501.76
2017-06-27T07:18:22.526Z,100500.87
2017-06-27T07:20:50.071Z,100505.64
2017-06-27T07:23:17.576Z,100506.39
2017-06-27T07:25:45.138Z,100501.23
2017-06-27T07:28:12.892Z,100504.66
2017-06-27T07:30:40.438Z,100504.41
2017-06-27T07:33:07.992Z,100509.15
2017-06-27T07:35:35.542Z,100513.27
2017-06-27T07:38:03.043Z,100505.46
2017-06-27T07:40:30.731Z,100507.20
2017-06-27T07:42:58.316Z,100508.47
2017-06-27T07:45:25.927Z,100501.81
2017-06-27T07:47:53.480Z,100507.06
2017-06-27T07:50:21.019Z,100501.00
2017-06-27T07:52:48.747Z,100510.54
2017-06-27T07:55:16.270Z,100510.98
2017-06-27T07:57:43.957Z,100515.95
2017-06-27T08:00:11.528Z,100504.25
2017-06-27T08:02:39.223Z,100510.50
2017-06-27T08:05:06.736Z,100502.20
2017-06-27T08:07:34.247Z,100499.48
2017-06-27T08:10:01.831Z,100501.53
2017-06-27T08:12:29.339Z,100492.69
2017-06-27T08:14:56.894Z,100491.66
2017-06-27T08:17:24.407Z,100488.80
2017-06-27T08:19:52.143Z,100485.67
2017-06-27T08:22:19.660Z,100480.03
2017-06-27T08:24:47.175Z,100478.67
2017-06-27T08:27:14.742Z,100475.23
2017-06-27T08:29:42.247Z,100477.83
2017-06-27T08:32:09.832Z,100472.73
2017-06-27T08:34:37.354Z,100474.72
2017-06-27T08:37:04.899Z,100462.93
2017-06-27T08:39:32.419Z,100466.80
2017-06-27T08:41:59.972Z,100471.69
2017-06-27T08:44:27.480Z,100467.55
2017-06-27T08:46:55.205Z,100470.03
2017-06-27T08:49:22.716Z,100464.70
2017-06-27T08:51:50.243Z,100465.10
2017-06-27T08:54:17.787Z,100460.53
2017-06-27T08:56:45.310Z,100453.38
2017-06-27T08:59:12.868Z,100450.46
2017-06-27T09:01:40.379Z,100454.08
2017-06-27T09:04:07.928Z,100453.66
2017-06-27T09:06:35.439Z,100450.42
2017-06-27T09:09:02.986Z,100446.09
2017-06-27T09:11:30.544Z,100445.58
2017-06-27T09:13:58.094Z,100444.39
2017-06-27T09:16:25.624Z,100445.06
2017-06-27T09:18:54.195Z,100450.23
2017-06-27T09:21:21.709Z,100442.66
2017-06-27T09:23:49.264Z,100434.09
2017-06-27T09:26:16.792Z,100440.80
2017-06-27T09:28:44.305Z,100438.06
2017-06-27T09:31:11.879Z,100433.33
2017-06-27T09:33:39.444Z,100434.75
2017-06-27T09:36:07.068Z,100436.61
2017-06-27T09:38:34.594Z,100438.52
2017-06-27T09:41:02.159Z,100439.09
2017-06-27T09:43:29.721Z,100435.30
2017-06-27T09:45:57.256Z,100428.80
2017-06-27T09:48:24.807Z,100424.50
2017-06-27T09:50:52.318Z,100429.78
2017-06-27T09:53:19.876Z,100424.62
2017-06-27T09:55:47.478Z,100421.97
2017-06-27T09:58:15.029Z,100421.68
2017-06-27T10:00:42.556Z,100415.48
2017-06-27T10:03:10.111Z,100417.66
2017-06-27T10:05:37.666Z,100418.16
2017-06-27T10:08:05.231Z,100416.31
2017-06-27T10:10:32.770Z,100407.86
2017-06-27T10:13:00.287Z,100405.54
2017-06-27T10:15:27.840Z,100402.58
2017-06-27T10:17:55.345Z,100404.98
2017-06-27T10:20:22.886Z,100402.80
2017-06-27T10:22:50.407Z,100400.52
2017-06-27T10:25:17.979Z,100397.73
2017-06-27T10:27:45.596Z,100398.75
2017-06-27T10:30:13.256Z,100397.66
2017-06-27T10:32:40.867Z,100395.42
2017-06-27T10:35:08.407Z,100391.42
2017-06-27T10:37:35.936Z,100393.34
2017-06-27T10:40:03.512Z,100392.09
2017-06-27T10:42:31.084Z,100390.19
2017-06-27T10:44:58.686Z,100385.91
2017-06-27T10:47:26.224Z,100380.60
2017-06-27T10:49:53.779Z,100375.44
2017-06-27T10:52:21.291Z,100371.73
2017-06-27T10:54:48.856Z,100372.09
2017-06-27T10:57:16.380Z,100368.53
2017-06-27T10:59:43.935Z,100361.90
2017-06-27T11:02:11.488Z,100367.47
2017-06-27T11:04:39.011Z,100368.71
2017-06-27T11:07:06.585Z,100368.66
2017-06-27T11:09:34.114Z,100362.36
2017-06-27T11:12:01.648Z,100364.48
2017-06-27T11:14:29.165Z,100366.09
2017-06-27T11:16:56.711Z,100362.88
2017-06-27T11:19:24.211Z,100360.19
2017-06-27T11:21:51.792Z,100361.47
2017-06-27T11:24:19.307Z,100358.77
2017-06-27T11:26:46.819Z,100355.75
2017-06-27T11:29:14.369Z,100351.95
2017-06-27T11:31:42.282Z,100357.41
2017-06-27T11:34:09.795Z,100355.53
2017-06-27T11:36:37.330Z,100358.78
2017-06-27T11:39:04.888Z,100359.77
2017-06-27T11:41:32.411Z,100356.57
2017-06-27T11:43:59.969Z,100362.53
2017-06-27T11:46:27.484Z,100361.58
2017-06-27T11:48:55.098Z,100366.78
2017-06-27T11:51:22.818Z,100357.47
2017-06-27T11:53:50.371Z,100360.48
2017-06-27T11:56:17.975Z,100354.63
2017-06-27T11:58:45.550Z,100353.56
2017-06-27T12:01:25.020Z,100357.46
2017-06-27T12:04:04.268Z,100349.58
2017-06-27T12:06:34.751Z,100347.32
2017-06-27T12:11:53.871Z,100339.09
2017-06-27T12:14:21.692Z,100342.31
2017-06-27T12:16:49.247Z,100337.84
2017-06-27T12:19:16.798Z,100336.92
2017-06-27T12:21:44.459Z,100328.37
2017-06-27T12:24:12.015Z,100323.39
2017-06-27T12:26:39.574Z,100320.11
2017-06-27T12:29:07.128Z,100313.19
2017-06-27T12:31:34.703Z,100310.86
2017-06-27T12:34:02.319Z,100306.04
2017-06-27T12:36:29.852Z,100298.85
2017-06-27T12:38:57.420Z,100291.25
2017-06-27T12:41:25.003Z,100288.60
2017-06-27T12:43:52.544Z,100287.82
2017-06-27T12:46:20.122Z,100289.62
2017-06-27T12:48:47.767Z,100288.08
2017-06-27T12:51:15.323Z,100277.76
2017-06-27T12:53:42.912Z,100275.55
2017-06-27T12:56:10.457Z,100279.79
2017-06-27T12:58:38.032Z,100276.84
2017-06-27T13:01:05.548Z,100286.50
2017-06-27T13:03:33.075Z,100278.12
2017-06-27T13:06:00.639Z,100279.56
2017-06-27T13:08:28.144Z,100278.64
2017-06-27T13:10:55.688Z,100270.70
2017-06-27T13:13:23.250Z,100273.75
2017-06-27T13:15:50.775Z,100272.14
2017-06-27T13:18:18.322Z,100264.57
2017-06-27T13:20:45.850Z,100257.44
2017-06-27T13:23:13.450Z,100254.98
2017-06-27T13:25:40.955Z,100257.20
2017-06-27T13:28:08.463Z,100255.72
2017-06-27T13:30:36.004Z,100248.28
2017-06-27T13:33:03.539Z,100244.73
2017-06-27T13:35:31.090Z,100239.28
2017-06-27T13:37:58.598Z,100233.11
2017-06-27T13:40:26.154Z,100230.70
2017-06-27T13:42:53.668Z,100226.18
2017-06-27T13:45:21.188Z,100220.38
2017-06-27T13:47:48.720Z,100211.50
2017-06-27T13:50:16.230Z,100204.38
2017-06-27T13:52:43.784Z,100204.18
2017-06-27T13:55:11.296Z,100201.73
2017-06-27T13:57:38.835Z,100189.84
2017-06-27T14:00:06.361Z,100182.08
2017-06-27T14:02:33.914Z,100180.88
2017-06-27T14:05:01.442Z,100180.75
2017-06-27T14:07:28.973Z,100170.30
2017-06-27T14:09:56.527Z,100171.98
2017-06-27T14:12:24.054Z,100174.39
2017-06-27T14:14:51.678Z,100166.11
2017-06-27T14:17:19.230Z,100164.67
2017-06-27T14:19:46.837Z,100155.83
2017-06-27T14:22:14.355Z,100161.02
2017-06-27T14:24:41.943Z,100167.33
2017-06-27T14:27:09.470Z,100161.89
2017-06-27T14:29:36.975Z,100161.08
2017-06-27T14:32:04.522Z,100163.78
2017-06-27T14:34:32.051Z,100158.84
2017-06-27T14:36:59.603Z,100149.75
2017-06-27T14:39:27.113Z,100148.05
2017-06-27T14:41:54.672Z,100145.20
2017-06-27T14:44:22.187Z,100144.41
2017-06-27T14:46:49.710Z,100144.55
2017-06-27T14:49:17.247Z,100149.19
2017-06-27T14:51:44.767Z,100144.81
2017-06-27T14:54:12.332Z,100137.32
2017-06-27T14:56:39.864Z,100133.14
2017-06-27T14:59:07.375Z,100126.03
2017-06-27T15:01:34.922Z,100123.56
2017-06-27T15:04:02.450Z,100118.04
2017-06-27T15:06:30.003Z,100112.89
2017-06-27T15:08:57.506Z,100119.84
2017-06-27T15:11:25.058Z,100117.25
2017-06-27T15:13:52.675Z,100109.59
2017-06-27T15:16:20.204Z,100109.50
2017-06-27T15:18:47.854Z,100110.23
2017-06-27T15:21:15.414Z,100108.28
2017-06-27T15:23:42.948Z,100109.09
2017-06-27T15:26:10.506Z,100097.92
2017-06-27T15:28:38.033Z,100100.80
2017-06-27T15:31:05.621Z,100096.56
2017-06-27T15:33:33.147Z,100085.54
2017-06-27T15:36:00.719Z,100084.04
2017-06-27T15:38:28.239Z,100080.38
2017-06-27T15:40:55.811Z,100078.55
2017-06-27T15:43:23.377Z,100070.33
2017-06-27T15:45:50.895Z,100060.84
2017-06-27T15:48:18.603Z,100052.03
2017-06-27T15:50:46.114Z,100048.67
2017-06-27T15:53:13.620Z,100040.06
2017-06-27T15:55:41.173Z,100031.59
2017-06-27T15:58:08.712Z,100028.34
2017-06-27T16:00:36.290Z,100024.83
2017-06-27T16:03:03.815Z,100017.73
2017-06-27T16:05:31.383Z,100016.80
2017-06-27T16:07:58.905Z,100011.47
2017-06-27T16:10:26.525Z,100013.43
2017-06-27T16:12:54.054Z,100010.61
2017-06-27T16:15:21.618Z,100009.31
2017-06-27T16:17:49.310Z,100001.46
2017-06-27T16:20:17.072Z,100003.19
2017-06-27T16:22:44.583Z,99994.91
2017-06-27T16:25:12.088Z,99989.53
2017-06-27T16:27:39.647Z,99990.68
2017-06-27T16:30:07.161Z,99989.53
2017-06-27T16:32:34.710Z,99983.59
2017-06-27T16:35:02.244Z,99977.48
2017-06-27T16:37:29.808Z,99969.50
2017-06-27T16:39:57.447Z,99969.05
2017-06-27T16:42:25.004Z,99969.20
2017-06-27T16:44:52.539Z,99971.45
2017-06-27T16:47:20.319Z,99960.18
2017-06-27T16:49:47.816Z,99956.11
2017-06-27T16:52:15.321Z,99956.61
2017-06-27T16:54:42.960Z,99951.12
2017-06-27T16:57:10.470Z,99946.43
2017-06-27T16:59:38.043Z,99941.25
2017-06-27T17:02:05.565Z,99935.41
2017-06-27T17:04:33.123Z,99938.81
2017-06-27T17:07:00.631Z,99940.11
2017-06-27T17:09:28.232Z,99942.57
2017-06-27T17:11:55.787Z,99942.20
2017-06-27T17:14:23.455Z,99942.84
2017-06-27T17:16:51.136Z,99936.62
2017-06-27T17:19:18.655Z,99934.72
2017-06-27T17:21:46.230Z,99934.76
2017-06-27T17:24:13.909Z,99923.09
2017-06-27T17:26:41.526Z,99918.88
2017-06-27T17:29:09.305Z,99916.13
2017-06-27T17:31:36.852Z,99905.95
2017-06-27T17:34:04.655Z,99908.16
2017-06-27T17:36:32.166Z,99900.84
2017-06-27T17:38:59.684Z,99897.36
2017-06-27T17:41:27.268Z,99903.44
2017-06-27T17:43:55.307Z,99901.63
2017-06-27T17:46:22.898Z,99889.34
2017-06-27T17:48:50.422Z,99884.36
2017-06-27T17:51:18.287Z,99882.44
2017-06-27T17:53:45.866Z,99877.77
2017-06-27T17:56:13.398Z,99877.84
2017-06-27T17:58:40.963Z,99877.67
2017-06-27T18:01:08.471Z,99872.49
2017-06-27T18:03:36.031Z,99868.30
2017-06-27T18:06:03.540Z,99858.64
2017-06-27T18:08:31.094Z,99859.39
2017-06-27T18:10:58.602Z,99862.88
2017-06-27T18:13:26.315Z,99858.30
2017-06-27T18:15:53.828Z,99846.21
2017-06-27T18:18:21.411Z,99847.92
2017-06-27T18:20:48.961Z,99843.81
2017-06-27T18:23:16.536Z,99839.09
2017-06-27T18:25:44.106Z,99849.65
2017-06-27T18:28:11.617Z,99849.59
2017-06-27T18:30:39.280Z,99849.82
2017-06-27T18:33:06.820Z,99852.16
2017-06-27T18:35:34.388Z,99852.77
2017-06-27T18:38:01.963Z,99840.63
2017-06-27T18:40:29.496Z,99842.47
2017-06-27T18:42:57.749Z,99836.14
2017-06-27T18:45:25.302Z,99840.84
2017-06-27T18:47:52.883Z,99834.69
2017-06-27T18:50:20.525Z,99837.78
2017-06-27T18:52:48.045Z,99839.87
2017-06-27T18:55:15.603Z,99838.86
2017-06-27T18:57:43.145Z,99837.90
2017-06-27T19:00:10.704Z,99842.09
2017-06-27T19:02:38.232Z,99845.77
2017-06-27T19:05:05.828Z,99842.63
2017-06-27T19:07:33.450Z,99843.25
2017-06-27T19:10:01.008Z,99836.62
2017-06-27T19:12:28.660Z,99833.17
2017-06-27T19:14:56.183Z,99833.77
2017-06-27T19:17:23.770Z,99837.09
2017-06-27T19:19:51.313Z,99837.05
2017-06-27T19:22:18.895Z,99835.80
2017-06-27T19:24:46.427Z,99834.32
2017-06-27T19:27:14.113Z,99828.85
2017-06-27T19:29:41.632Z,99818.77
2017-06-27T19:32:09.154Z,99827.39
2017-06-27T19:34:36.724Z,99824.87
2017-06-27T19:37:04.355Z,99827.09
2017-06-27T19:39:32.016Z,99821.02
2017-06-27T19:41:59.618Z,99820.45
2017-06-27T19:44:27.189Z,99816.34
2017-06-27T19:46:54.775Z,99809.32
2017-06-27T19:49:22.455Z,99804.73
2017-06-27T19:51:49.973Z,99806.96
2017-06-27T19:54:17.681Z,99799.69
2017-06-27T19:56:45.193Z,99796.66
2017-06-27T19:59:12.785Z,99796.58
2017-06-27T20:01:40.326Z,99796.63
2017-06-27T20:04:07.835Z,99797.03
2017-06-27T20:06:35.384Z,99797.91
2017-06-27T20:09:02.926Z,99801.81
2017-06-27T20:11:30.674Z,99807.17
2017-06-27T20:13:58.213Z,99801.78
2017-06-27T20:16:25.784Z,99801.02
2017-06-27T20:18:53.515Z,99799.85
2017-06-27T20:21:21.040Z,99805.02
2017-06-27T20:23:48.631Z,99794.80
2017-06-27T20:26:16.138Z,99791.52
2017-06-27T20:28:43.796Z,99783.08
2017-06-27T20:31:11.332Z,99779.75
2017-06-27T20:33:39.007Z,99780.86
2017-06-27T20:36:06.612Z,99773.62
2017-06-27T20:38:34.159Z,99770.78
2017-06-27T20:41:01.732Z,99768.97
2017-06-27T20:43:29.264Z,99765.56
2017-06-27T20:45:56.831Z,99756.60
2017-06-27T20:48:24.349Z,99755.60
2017-06-27T20:50:52.079Z,99745.97
2017-06-27T20:53:19.632Z,99745.12
2017-06-27T20:55:47.156Z,99742.64
2017-06-27T20:58:14.717Z,99744.34
2017-06-27T21:00:42.234Z,99741.83
2017-06-27T21:03:09.833Z,99734.56
2017-06-27T21:05:37.358Z,99727.84
2017-06-27T21:08:04.918Z,99729.56
2017-06-27T21:10:32.442Z,99726.91
2017-06-27T21:13:00.202Z,99724.00
2017-06-27T21:15:27.731Z,99725.61
2017-06-27T21:17:55.259Z,99726.91
2017-06-27T21:20:22.839Z,99721.34
2017-06-27T21:22:50.359Z,99723.08
2017-06-27T21:25:17.924Z,99718.61
2017-06-27T21:27:45.448Z,99716.25
2017-06-27T21:30:13.111Z,99719.00
2017-06-27T21:32:40.645Z,99718.38
2017-06-27T21:35:08.219Z,99717.98
2017-06-27T21:37:35.787Z,99715.05
2017-06-27T21:40:03.336Z,99719.51
2017-06-27T21:42:30.923Z,99718.25
2017-06-27T21:44:58.806Z,99715.88
2017-06-27T21:47:26.420Z,99712.20
2017-06-27T21:49:53.966Z,99706.61
2017-06-27T21:52:21.551Z,99701.89
2017-06-27T21:54:49.107Z,99705.71
2017-06-27T21:57:16.684Z,99693.39
2017-06-27T21:59:44.249Z,99695.30
2017-06-27T22:02:11.803Z,99695.55
2017-06-27T22:04:39.392Z,99693.28
2017-06-27T22:07:06.903Z,99699.74
2017-06-27T22:09:34.456Z,99694.34
2017-06-27T22:12:01.999Z,99699.05
2017-06-27T22:14:29.572Z,99690.19
2017-06-27T22:16:57.115Z,99689.78
2017-06-27T22:19:24.894Z,99683.94
2017-06-27T22:21:52.481Z,99690.08
2017-06-27T22:24:20.072Z,99683.13
2017-06-27T22:26:47.703Z,99676.72
2017-06-27T22:29:15.288Z,99676.25
2017-06-27T22:31:42.863Z,99676.28
2017-06-27T22:34:10.452Z,99668.61
2017-06-27T22:36:38.023Z,99669.99
2017-06-27T22:39:05.531Z,99661.87
2017-06-27T22:41:33.131Z,99661.27
2017-06-27T22:44:00.647Z,99662.27
2017-06-27T22:46:28.347Z,99657.37
2017-06-27T22:48:55.859Z,99650.60
2017-06-27T22:51:23.374Z,99644.73
2017-06-27T22:53:50.937Z,99647.25
2017-06-27T22:56:18.467Z,99652.97
2017-06-27T22:58:46.014Z,99647.66
2017-06-27T23:01:13.567Z,99639.80
2017-06-27T23:03:41.144Z,99639.20
2017-06-27T23:06:08.654Z,99632.34
2017-06-27T23:08:36.199Z,99639.25
2017-06-27T23:11:03.755Z,99629.17
2017-06-27T23:13:31.267Z,99633.81
2017-06-27T23:15:58.799Z,99632.31
2017-06-27T23:18:26.311Z,99624.81
2017-06-27T23:20:54.255Z,99624.67
2017-06-27T23:23:21.780Z,99620.83
2017-06-27T23:25:49.429Z,99617.36
2017-06-27T23:28:16.971Z,99612.37
2017-06-27T23:30:44.483Z,99609.38
2017-06-27T23:33:12.047Z,99598.29
2017-06-27T23:35:39.559Z,99592.30
2017-06-27T23:38:07.133Z,99592.21
2017-06-27T23:40:34.667Z,99591.35
2017-06-27T23:43:02.211Z,99582.44
2017-06-27T23:45:29.762Z,99577.67
2017-06-27T23:47:57.283Z,99564.69
2017-06-27T23:50:24.845Z,99563.05
2017-06-27T23:52:52.359Z,99557.38
2017-06-27T23:55:19.949Z,99550.20
2017-06-27T23:57:47.471Z,99545.97
